createdAt,value
2019-05-07T01:42:56.739Z,67.07
2019-05-07T01:45:41.770Z,67.12
2019-05-07T01:48:04.223Z,67.27
2019-05-07T01:50:34.399Z,67.50
2019-05-07T01:53:05.703Z,68.00
2019-05-07T01:55:37.055Z,68.21
2019-05-07T01:58:08.357Z,68.78
2019-05-07T02:00:39.789Z,69.85
2019-05-07T02:03:15.105Z,70.14
2019-05-07T02:05:48.008Z,70.28
2019-05-07T02:08:22.135Z,70.16
2019-05-07T02:10:55.163Z,68.79
2019-05-07T02:13:26.485Z,69.49
2019-05-07T02:16:01.252Z,69.76
2019-05-07T02:18:32.576Z,69.55
2019-05-07T02:21:03.846Z,68.47
2019-05-07T02:23:35.072Z,68.44
2019-05-07T02:26:06.347Z,69.49
2019-05-07T02:28:37.575Z,68.48
2019-05-07T02:31:09.924Z,67.33
2019-05-07T02:33:43.442Z,68.08
2019-05-07T02:36:14.519Z,67.71
2019-05-07T02:38:47.462Z,66.85
2019-05-07T02:41:26.222Z,66.91
2019-05-07T02:44:00.076Z,67.55
2019-05-07T02:46:34.862Z,68.36
2019-05-07T02:49:14.457Z,68.91
2019-05-07T02:51:47.442Z,68.87
2019-05-07T02:54:26.048Z,67.92
2019-05-07T02:56:57.355Z,67.78
2019-05-07T02:59:28.607Z,67.45
2019-05-07T03:01:59.914Z,67.41
2019-05-07T03:04:33.359Z,67.38
2019-05-07T03:07:04.384Z,67.33
2019-05-07T03:09:35.882Z,66.67
2019-05-07T03:12:07.252Z,67.43
2019-05-07T03:14:38.565Z,67.68
2019-05-07T03:17:12.963Z,67.13
2019-05-07T03:19:45.562Z,66.87
2019-05-07T03:22:17.443Z,66.48
2019-05-07T03:24:53.158Z,66.06
2019-05-07T03:27:24.628Z,66.43
2019-05-07T03:29:57.599Z,66.33
2019-05-07T03:32:37.785Z,67.35
2019-05-07T03:35:20.662Z,68.04
2019-05-07T03:37:54.701Z,67.60
2019-05-07T03:40:25.237Z,68.79
2019-05-07T03:42:56.565Z,69.19
2019-05-07T03:45:29.519Z,69.89
2019-05-07T03:48:23.404Z,70.05
2019-05-07T03:50:54.860Z,69.40
2019-05-07T03:53:26.154Z,68.66
2019-05-07T03:55:57.499Z,69.46
2019-05-07T03:58:28.751Z,70.23
2019-05-07T04:01:00.060Z,71.42
2019-05-07T04:03:34.122Z,70.75
2019-05-07T04:06:04.720Z,71.13
2019-05-07T04:08:35.952Z,70.38
2019-05-07T04:11:07.347Z,69.64
2019-05-07T04:13:38.569Z,70.27
2019-05-07T04:16:13.438Z,69.53
2019-05-07T04:18:43.900Z,69.33
2019-05-07T04:21:15.569Z,69.51
2019-05-07T04:23:48.541Z,69.19
2019-05-07T04:26:23.233Z,69.06
2019-05-07T04:28:59.032Z,69.74
2019-05-07T04:31:34.191Z,69.68
2019-05-07T04:34:09.631Z,69.37
2019-05-07T04:36:43.586Z,69.37
2019-05-07T04:39:15.324Z,69.91
2019-05-07T04:41:46.738Z,70.95
2019-05-07T04:44:18.038Z,69.95
2019-05-07T04:46:49.298Z,68.57
2019-05-07T04:49:23.598Z,71.24
2019-05-07T04:51:57.997Z,72.50
2019-05-07T04:54:29.256Z,72.89
2019-05-07T04:57:03.450Z,72.92
2019-05-07T04:59:33.468Z,73.15
2019-05-07T05:02:13.542Z,73.41
2019-05-07T05:04:45.166Z,72.19
2019-05-07T05:07:16.465Z,72.51
2019-05-07T05:09:47.878Z,73.85
2019-05-07T05:12:19.181Z,73.25
2019-05-07T05:14:52.333Z,72.85
2019-05-07T05:17:23.451Z,73.84
2019-05-07T05:19:54.713Z,75.17
2019-05-07T05:22:42.521Z,75.26
2019-05-07T05:25:19.502Z,74.43
2019-05-07T05:27:52.646Z,75.46
2019-05-07T05:30:42.614Z,75.68
2019-05-07T05:33:15.179Z,76.62
2019-05-07T05:35:46.444Z,76.47
2019-05-07T05:38:17.692Z,76.50
2019-05-07T05:40:49.002Z,76.45
2019-05-07T05:43:33.939Z,76.55
2019-05-07T05:46:12.103Z,76.73
2019-05-07T05:48:43.318Z,76.15
2019-05-07T05:51:23.432Z,75.48
2019-05-07T05:53:57.395Z,74.23
2019-05-07T05:56:28.548Z,74.58
2019-05-07T05:59:05.550Z,73.85
2019-05-07T06:01:45.577Z,73.95
2019-05-07T06:04:36.624Z,72.82
2019-05-07T06:07:14.791Z,72.10
2019-05-07T06:09:57.294Z,72.00
2019-05-07T06:12:40.047Z,71.63
2019-05-07T06:15:19.140Z,72.04
2019-05-07T06:18:17.673Z,71.55
2019-05-07T06:20:38.784Z,71.18
2019-05-07T06:23:22.519Z,72.37
2019-05-07T06:25:54.037Z,72.11
2019-05-07T06:28:25.317Z,70.76
2019-05-07T06:30:56.613Z,70.08
2019-05-07T06:33:28.099Z,70.31
2019-05-07T06:35:59.318Z,69.95
2019-05-07T06:38:32.298Z,67.69
2019-05-07T06:41:06.474Z,66.88
2019-05-07T06:43:57.706Z,66.98
2019-05-07T06:46:29.030Z,67.62
2019-05-07T06:49:02.175Z,65.66
2019-05-07T06:51:33.221Z,66.96
2019-05-07T06:54:04.615Z,68.08
2019-05-07T06:56:35.911Z,66.36
2019-05-07T06:59:09.215Z,67.43
2019-05-07T07:01:59.324Z,65.52
2019-05-07T07:04:42.379Z,64.97
2019-05-07T07:07:29.670Z,65.37
2019-05-07T07:10:04.842Z,66.69
2019-05-07T07:12:36.385Z,66.69
2019-05-07T07:15:08.048Z,65.36
2019-05-07T07:17:41.364Z,64.32
2019-05-07T07:20:13.153Z,65.12
2019-05-07T07:22:44.444Z,65.36
2019-05-07T07:25:15.876Z,62.19
2019-05-07T07:27:47.211Z,64.26
2019-05-07T07:30:21.874Z,61.79
2019-05-07T07:32:55.023Z,63.65
2019-05-07T07:35:26.512Z,63.72
2019-05-07T07:37:57.827Z,62.69
2019-05-07T07:40:37.055Z,62.62
2019-05-07T07:43:08.388Z,61.21
2019-05-07T07:45:41.898Z,60.73
2019-05-07T07:48:13.298Z,61.34
2019-05-07T07:50:44.754Z,59.28
2019-05-07T07:53:16.108Z,58.97
2019-05-07T07:56:05.557Z,58.61
2019-05-07T07:58:41.814Z,58.95
2019-05-07T08:01:20.104Z,58.27
2019-05-07T08:03:52.289Z,57.48
2019-05-07T08:06:25.426Z,56.08
2019-05-07T08:08:56.991Z,56.71
2019-05-07T08:11:28.373Z,55.68
2019-05-07T08:14:02.203Z,56.18
2019-05-07T08:16:32.928Z,55.90
2019-05-07T08:19:17.547Z,55.04
2019-05-07T08:21:37.373Z,55.57
2019-05-07T08:24:08.701Z,53.08
2019-05-07T08:26:40.118Z,52.03
2019-05-07T08:29:12.009Z,50.91
2019-05-07T08:31:48.459Z,51.00
2019-05-07T08:34:25.682Z,51.05
2019-05-07T08:36:57.025Z,50.58
2019-05-07T08:39:28.405Z,49.79
2019-05-07T08:42:01.992Z,47.81
2019-05-07T08:44:44.711Z,49.13
2019-05-07T08:47:22.702Z,48.27
2019-05-07T08:49:53.724Z,50.62
2019-05-07T08:52:26.075Z,50.55
2019-05-07T08:54:57.548Z,48.56
2019-05-07T08:57:28.948Z,48.95
2019-05-07T09:00:01.633Z,48.67
2019-05-07T09:02:33.260Z,48.88
2019-05-07T09:05:09.126Z,47.96
2019-05-07T09:07:39.714Z,48.32
2019-05-07T09:10:12.707Z,45.97
2019-05-07T09:12:44.256Z,45.85
2019-05-07T09:15:15.766Z,45.88
2019-05-07T09:17:47.075Z,46.78
2019-05-07T09:20:18.767Z,47.49
2019-05-07T09:22:51.812Z,42.86
2019-05-07T09:25:23.536Z,42.24
2019-05-07T09:27:55.154Z,41.50
2019-05-07T09:30:44.347Z,42.84
2019-05-07T09:33:17.347Z,43.32
2019-05-07T09:35:50.393Z,40.57
2019-05-07T09:38:22.341Z,43.94
2019-05-07T09:40:56.841Z,41.28
2019-05-07T09:43:27.001Z,38.50
2019-05-07T09:45:58.229Z,40.66
2019-05-07T09:48:29.597Z,39.89
2019-05-07T09:51:02.318Z,37.97
2019-05-07T09:53:33.806Z,38.31
2019-05-07T09:56:05.237Z,38.53
2019-05-07T09:58:39.224Z,37.67
2019-05-07T10:01:09.739Z,35.28
2019-05-07T10:03:42.862Z,35.21
2019-05-07T10:06:14.421Z,35.92
2019-05-07T10:08:45.829Z,34.99
2019-05-07T10:11:18.850Z,35.12
2019-05-07T10:13:54.995Z,32.94
2019-05-07T10:16:31.018Z,35.77
2019-05-07T10:19:02.816Z,37.55
2019-05-07T10:21:34.260Z,36.23
2019-05-07T10:24:06.058Z,36.03
2019-05-07T10:26:40.002Z,38.21
2019-05-07T10:29:12.607Z,35.77
2019-05-07T10:31:45.623Z,37.85
2019-05-07T10:34:16.997Z,39.81
2019-05-07T10:36:48.386Z,38.04
2019-05-07T10:39:19.675Z,40.17
2019-05-07T10:41:51.180Z,35.83
2019-05-07T10:44:24.234Z,38.70
2019-05-07T10:47:13.202Z,35.20
2019-05-07T10:49:46.264Z,37.63
2019-05-07T10:52:17.645Z,36.66
2019-05-07T10:54:59.044Z,35.94
2019-05-07T10:57:22.392Z,34.88
2019-05-07T10:59:53.669Z,36.58
2019-05-07T11:02:26.577Z,36.27
2019-05-07T11:04:57.968Z,37.46
2019-05-07T11:07:29.373Z,36.89
2019-05-07T11:10:01.966Z,35.40
2019-05-07T11:12:33.512Z,35.27
2019-05-07T11:15:06.892Z,37.31
2019-05-07T11:17:41.797Z,37.71
2019-05-07T11:20:14.054Z,36.04
2019-05-07T11:22:45.300Z,37.77
2019-05-07T11:25:16.720Z,38.83
2019-05-07T11:27:48.204Z,36.35
2019-05-07T11:30:22.571Z,36.27
2019-05-07T11:32:53.592Z,35.63
2019-05-07T11:35:24.916Z,37.03
2019-05-07T11:37:56.339Z,34.97
2019-05-07T11:40:28.589Z,32.21
2019-05-07T11:43:12.893Z,34.58
2019-05-07T11:45:54.487Z,35.20
2019-05-07T11:48:27.354Z,34.42
2019-05-07T11:52:08.484Z,33.48
2019-05-07T11:54:26.392Z,33.40
2019-05-07T11:57:02.960Z,34.00
2019-05-07T11:59:36.210Z,33.18
2019-05-07T12:02:08.004Z,33.91
2019-05-07T12:04:42.307Z,32.78
2019-05-07T12:07:17.946Z,31.30
2019-05-07T12:09:49.327Z,32.09
2019-05-07T12:12:22.164Z,35.77
2019-05-07T12:14:53.804Z,33.89
2019-05-07T12:17:25.120Z,35.38
2019-05-07T12:19:57.372Z,32.46
2019-05-07T12:22:46.972Z,32.91
2019-05-07T12:25:19.618Z,32.88
2019-05-07T12:27:53.850Z,31.60
2019-05-07T12:30:47.990Z,33.38
2019-05-07T12:33:37.406Z,34.06
2019-05-07T12:36:12.593Z,30.64
2019-05-07T12:38:43.973Z,30.30
2019-05-07T12:41:17.178Z,32.04
2019-05-07T12:43:51.956Z,29.68
2019-05-07T12:46:25.203Z,30.66
2019-05-07T12:48:56.585Z,30.53
2019-05-07T12:51:34.579Z,31.11
2019-05-07T12:54:14.563Z,30.64
2019-05-07T12:56:46.327Z,31.74
2019-05-07T12:59:17.580Z,31.89
2019-05-07T13:02:16.694Z,30.96
2019-05-07T13:04:52.189Z,32.65
2019-05-07T13:07:23.923Z,30.41
2019-05-07T13:09:56.297Z,30.61
2019-05-07T13:12:28.153Z,28.81
2019-05-07T13:15:02.757Z,29.76
2019-05-07T13:17:35.192Z,28.87
2019-05-07T13:20:12.131Z,29.60
2019-05-07T13:22:43.644Z,30.41
2019-05-07T13:25:17.970Z,30.62
2019-05-07T13:27:49.441Z,30.15
2019-05-07T13:30:22.191Z,30.51
2019-05-07T13:32:56.690Z,29.47
2019-05-07T13:35:28.216Z,30.39
2019-05-07T13:38:04.532Z,31.42
2019-05-07T13:40:56.083Z,29.81
2019-05-07T13:43:37.721Z,28.47
2019-05-07T13:46:13.903Z,29.14
2019-05-07T13:48:45.726Z,29.04
2019-05-07T13:51:17.321Z,27.88
2019-05-07T13:53:54.777Z,31.29
2019-05-07T13:56:26.376Z,30.06
2019-05-07T13:58:57.843Z,27.62
2019-05-07T14:01:33.791Z,28.04
2019-05-07T14:04:07.383Z,28.24
2019-05-07T14:06:43.203Z,29.16
2019-05-07T14:09:23.659Z,27.24
2019-05-07T14:11:52.983Z,27.42
2019-05-07T14:14:24.441Z,28.83
2019-05-07T14:16:55.747Z,28.95
2019-05-07T14:19:28.636Z,27.99
2019-05-07T14:21:59.988Z,28.40
2019-05-07T14:24:32.780Z,26.82
2019-05-07T14:27:07.414Z,28.00
2019-05-07T14:29:39.108Z,27.46
2019-05-07T14:32:15.544Z,27.34
2019-05-07T14:35:32.146Z,28.17
2019-05-07T14:45:08.487Z,25.97
2019-05-07T14:47:40.004Z,26.41
2019-05-07T14:50:12.347Z,27.46
2019-05-07T14:52:43.907Z,27.89
2019-05-07T14:55:15.664Z,28.69
2019-05-07T14:57:47.187Z,29.07
2019-05-07T15:00:18.768Z,28.19
2019-05-07T15:02:52.349Z,28.93
2019-05-07T15:05:23.410Z,26.53
2019-05-07T15:08:07.381Z,27.06
2019-05-07T15:10:28.795Z,27.14
2019-05-07T15:13:02.242Z,25.94
2019-05-07T15:15:33.751Z,27.20
2019-05-07T15:18:09.559Z,26.37
2019-05-07T15:20:41.916Z,27.52
2019-05-07T15:23:22.556Z,27.36
2019-05-07T15:25:54.201Z,27.30
2019-05-07T15:28:27.980Z,27.33
2019-05-07T15:31:04.550Z,27.53
2019-05-07T15:33:35.945Z,26.42
2019-05-07T15:36:11.826Z,27.06
2019-05-07T15:40:32.919Z,25.22
2019-05-07T15:55:42.239Z,24.91
2019-05-07T15:58:13.610Z,26.09
2019-05-07T16:00:46.581Z,25.03
2019-05-07T16:03:35.239Z,26.51
2019-05-07T16:06:07.356Z,27.15
2019-05-07T16:08:43.955Z,25.63
2019-05-07T16:11:15.371Z,25.95
2019-05-07T16:14:04.686Z,25.85
2019-05-07T16:16:42.728Z,26.30
2019-05-07T16:19:18.173Z,25.32
2019-05-07T16:21:49.528Z,27.15
2019-05-07T16:24:22.576Z,26.01
2019-05-07T16:26:57.429Z,25.60
2019-05-07T16:29:29.557Z,26.37
2019-05-07T16:32:02.388Z,26.04
2019-05-07T16:34:33.813Z,27.17
2019-05-07T16:37:07.456Z,24.53
2019-05-07T16:39:38.179Z,26.77
2019-05-07T16:42:09.458Z,25.91
2019-05-07T16:44:41.724Z,24.05
2019-05-07T16:47:13.168Z,26.62
2019-05-07T16:49:45.108Z,27.23
2019-05-07T16:52:16.393Z,25.09
2019-05-07T16:54:47.698Z,24.79
2019-05-07T16:57:21.603Z,24.70
2019-05-07T16:59:53.042Z,25.03
2019-05-07T17:02:28.688Z,26.20
2019-05-07T17:05:07.517Z,26.03
2019-05-07T17:07:42.692Z,28.97
2019-05-07T17:10:15.341Z,29.90
2019-05-07T17:12:46.942Z,30.43
2019-05-07T17:15:18.820Z,27.39
2019-05-07T17:17:51.782Z,27.21
2019-05-07T17:20:24.657Z,27.16
2019-05-07T17:22:56.978Z,26.87
2019-05-07T17:25:37.181Z,29.50
2019-05-07T17:28:12.444Z,26.55
2019-05-07T17:30:43.626Z,28.42
2019-05-07T17:33:14.931Z,30.03
2019-05-07T17:35:47.157Z,30.54
2019-05-07T17:38:18.583Z,30.40
2019-05-07T17:40:51.963Z,31.39
2019-05-07T17:43:23.083Z,30.24
2019-05-07T17:45:54.476Z,30.87
2019-05-07T17:48:25.825Z,32.38
2019-05-07T17:50:56.843Z,32.35
2019-05-07T17:53:28.202Z,35.13
2019-05-07T17:56:02.973Z,35.04
2019-05-07T17:58:34.415Z,36.42
2019-05-07T18:01:07.050Z,37.32
2019-05-07T18:03:42.613Z,37.89
2019-05-07T18:06:13.604Z,37.49
2019-05-07T18:08:44.990Z,39.06
2019-05-07T18:11:20.913Z,37.67
2019-05-07T18:13:51.737Z,38.74
2019-05-07T18:16:38.090Z,39.77
2019-05-07T18:19:09.508Z,37.93
2019-05-07T18:21:41.810Z,38.61
2019-05-07T18:24:16.607Z,34.46
2019-05-07T18:26:46.980Z,37.40
2019-05-07T18:29:18.323Z,35.48
2019-05-07T18:31:54.385Z,39.13
2019-05-07T18:34:26.718Z,39.99
2019-05-07T18:36:58.321Z,41.19
2019-05-07T18:39:29.655Z,40.84
2019-05-07T18:42:02.865Z,39.80
2019-05-07T18:44:34.394Z,40.84
2019-05-07T18:47:05.928Z,42.77
2019-05-07T18:49:37.332Z,42.82
2019-05-07T18:52:09.762Z,42.40
2019-05-07T18:54:42.844Z,43.57
2019-05-07T18:57:14.393Z,43.21
2019-05-07T18:59:47.484Z,42.91
2019-05-07T19:02:18.997Z,43.01
2019-05-07T19:04:51.903Z,42.91
2019-05-07T19:07:23.621Z,43.05
2019-05-07T19:09:55.049Z,43.51
2019-05-07T19:12:27.986Z,43.78
2019-05-07T19:14:59.442Z,43.89
2019-05-07T19:17:32.294Z,44.21
2019-05-07T19:20:05.284Z,44.38
2019-05-07T19:22:38.058Z,44.76
2019-05-07T19:25:11.876Z,44.97
2019-05-07T19:27:43.164Z,45.44
2019-05-07T19:30:15.033Z,45.36
2019-05-07T19:33:12.589Z,45.23
2019-05-07T19:35:44.052Z,45.31
2019-05-07T19:38:15.706Z,45.90
2019-05-07T19:40:47.006Z,47.45
2019-05-07T19:43:18.512Z,48.41
2019-05-07T19:45:52.229Z,48.55
2019-05-07T19:48:23.266Z,49.68
2019-05-07T19:50:54.797Z,49.13
2019-05-07T19:53:26.175Z,48.57
2019-05-07T19:56:04.641Z,48.95
2019-05-07T19:58:43.096Z,50.22
2019-05-07T20:01:22.916Z,50.36
2019-05-07T20:03:54.341Z,50.38
2019-05-07T20:06:26.651Z,50.02
2019-05-07T20:09:09.004Z,49.07
2019-05-07T20:11:35.213Z,48.31
2019-05-07T20:14:07.230Z,47.20
2019-05-07T20:16:42.317Z,47.69
2019-05-07T20:19:15.767Z,48.49
2019-05-07T20:21:52.370Z,47.09
2019-05-07T20:24:23.474Z,48.25
2019-05-07T20:26:54.835Z,48.62
2019-05-07T20:29:29.131Z,46.81
2019-05-07T20:32:00.653Z,50.53
2019-05-07T20:34:33.259Z,50.98
2019-05-07T20:37:05.340Z,50.19
2019-05-07T20:39:37.193Z,48.69
2019-05-07T20:42:08.799Z,50.42
2019-05-07T20:44:42.457Z,50.75
2019-05-07T20:47:13.494Z,51.39
2019-05-07T20:49:45.080Z,51.38
2019-05-07T20:52:16.471Z,50.52
2019-05-07T20:54:50.324Z,50.41
2019-05-07T20:57:23.377Z,47.99
2019-05-07T20:59:54.777Z,51.73
2019-05-07T21:02:26.211Z,52.07
2019-05-07T21:04:57.496Z,51.03
2019-05-07T21:07:28.775Z,53.05
2019-05-07T21:10:02.053Z,51.46
2019-05-07T21:12:34.768Z,49.60
2019-05-07T21:15:08.245Z,50.36
2019-05-07T21:17:39.506Z,50.57
2019-05-07T21:20:12.115Z,51.55
2019-05-07T21:22:43.522Z,49.15
2019-05-07T21:25:14.890Z,50.22
2019-05-07T21:27:46.276Z,50.99
2019-05-07T21:30:17.776Z,51.71
2019-05-07T21:32:49.158Z,51.68
2019-05-07T21:35:22.395Z,51.07
2019-05-07T21:37:53.563Z,50.89
2019-05-07T21:40:24.924Z,51.14
2019-05-07T21:42:56.307Z,52.04
2019-05-07T21:45:27.795Z,52.45
2019-05-07T21:47:59.128Z,52.40
2019-05-07T21:50:30.541Z,52.38
2019-05-07T21:53:03.461Z,52.68
2019-05-07T21:56:01.697Z,53.64
2019-05-07T21:58:45.888Z,53.13
2019-05-07T22:01:22.179Z,53.14
2019-05-07T22:03:55.412Z,53.71
2019-05-07T22:06:26.868Z,53.49
2019-05-07T22:08:58.255Z,52.98
2019-05-07T22:11:32.143Z,51.79
2019-05-07T22:14:02.751Z,53.48
2019-05-07T22:16:34.124Z,54.04
2019-05-07T22:19:06.268Z,52.81
2019-05-07T22:21:37.622Z,54.01
2019-05-07T22:24:08.915Z,53.93
2019-05-07T22:26:42.034Z,53.72
2019-05-07T22:29:13.573Z,54.01
2019-05-07T22:31:58.541Z,55.05
2019-05-07T22:34:34.288Z,55.31
2019-05-07T22:37:07.681Z,55.76
2019-05-07T22:39:46.405Z,55.73
2019-05-07T22:42:25.184Z,56.42
2019-05-07T22:44:57.042Z,56.07
2019-05-07T22:47:28.393Z,55.79
2019-05-07T22:50:02.589Z,56.26
2019-05-07T22:52:33.184Z,55.92
2019-05-07T22:55:05.288Z,57.03
2019-05-07T22:57:47.403Z,55.10
2019-05-07T23:00:26.393Z,56.10
2019-05-07T23:02:57.740Z,57.36
2019-05-07T23:05:29.161Z,56.45
2019-05-07T23:08:02.402Z,55.89
2019-05-07T23:10:33.635Z,56.81
2019-05-07T23:13:05.048Z,56.89
2019-05-07T23:15:36.419Z,57.57
2019-05-07T23:18:07.956Z,58.00
2019-05-07T23:20:39.447Z,58.96
2019-05-07T23:23:13.872Z,60.17
2019-05-07T23:25:43.846Z,60.25
2019-05-07T23:28:15.139Z,60.79
2019-05-07T23:30:46.482Z,59.75
2019-05-07T23:33:17.818Z,59.68
2019-05-07T23:35:49.127Z,59.36
2019-05-07T23:38:22.384Z,59.25
2019-05-07T23:40:58.162Z,58.64
2019-05-07T23:43:29.587Z,59.85
2019-05-07T23:46:02.219Z,59.93
2019-05-07T23:48:33.570Z,60.40
2019-05-07T23:51:04.959Z,60.53
2019-05-07T23:53:36.914Z,60.32
2019-05-07T23:56:08.126Z,59.94
2019-05-07T23:58:39.477Z,60.09
